sensor_id;sensor_type;location;lat;lon;timestamp;P1;durP1;ratioP1;P2;durP2;ratioP2
45836;SDS011;31548;51.420;-0.040;2022-08-19T00:00:34;1.00;;;0.40;;
45836;SDS011;31548;51.420;-0.040;2022-08-19T00:03:04;0.55;;;0.38;;
45836;SDS011;31548;51.420;-0.040;2022-08-19T00:05:33;1.63;;;0.55;;
45836;SDS011;31548;51.420;-0.040;2022-08-19T00:08:02;3.28;;;0.60;;
45836;SDS011;31548;51.420;-0.040;2022-08-19T00:10:30;0.75;;;0.40;;
45836;SDS011;31548;51.420;-0.040;2022-08-19T00:12:58;2.45;;;0.50;;
45836;SDS011;31548;51.420;-0.040;2022-08-19T00:15:25;1.38;;;0.38;;
45836;SDS011;31548;51.420;-0.040;2022-08-19T00:17:54;2.03;;;0.40;;
45836;SDS011;31548;51.420;-0.040;2022-08-19T00:20:22;0.85;;;0.50;;
45836;SDS011;31548;51.420;-0.040;2022-08-19T00:22:49;2.95;;;0.50;;
45836;SDS011;31548;51.420;-0.040;2022-08-19T00:25:18;0.93;;;0.50;;
45836;SDS011;31548;51.420;-0.040;2022-08-19T00:27:56;4.15;;;0.60;;
45836;SDS011;31548;51.420;-0.040;2022-08-19T00:30:23;0.93;;;0.40;;
45836;SDS011;31548;51.420;-0.040;2022-08-19T00:32:51;0.57;;;0.40;;
45836;SDS011;31548;51.420;-0.040;2022-08-19T00:35:21;0.70;;;0.40;;
45836;SDS011;31548;51.420;-0.040;2022-08-19T00:37:50;0.93;;;0.50;;
45836;SDS011;31548;51.420;-0.040;2022-08-19T00:40:18;5.50;;;0.50;;
45836;SDS011;31548;51.420;-0.040;2022-08-19T00:42:46;1.50;;;0.60;;
45836;SDS011;31548;51.420;-0.040;2022-08-19T00:45:16;0.82;;;0.50;;
45836;SDS011;31548;51.420;-0.040;2022-08-19T00:47:47;1.30;;;0.60;;
45836;SDS011;31548;51.420;-0.040;2022-08-19T00:50:16;1.60;;;0.50;;
45836;SDS011;31548;51.420;-0.040;2022-08-19T00:52:48;2.75;;;0.40;;
45836;SDS011;31548;51.420;-0.040;2022-08-19T00:55:22;1.92;;;0.50;;
45836;SDS011;31548;51.420;-0.040;2022-08-19T00:57:55;2.00;;;0.50;;
45836;SDS011;31548;51.420;-0.040;2022-08-19T01:00:27;1.85;;;0.38;;
45836;SDS011;31548;51.420;-0.040;2022-08-19T01:02:56;4.35;;;0.50;;
45836;SDS011;31548;51.420;-0.040;2022-08-19T01:05:25;1.27;;;0.40;;
45836;SDS011;31548;51.420;-0.040;2022-08-19T01:07:56;1.08;;;0.52;;
45836;SDS011;31548;51.420;-0.040;2022-08-19T01:10:28;3.42;;;0.60;;
45836;SDS011;31548;51.420;-0.040;2022-08-19T01:13:03;2.45;;;0.55;;
45836;SDS011;31548;51.420;-0.040;2022-08-19T01:15:34;1.50;;;0.52;;
45836;SDS011;31548;51.420;-0.040;2022-08-19T01:18:14;0.80;;;0.40;;
45836;SDS011;31548;51.420;-0.040;2022-08-19T01:20:43;4.05;;;0.90;;
45836;SDS011;31548;51.420;-0.040;2022-08-19T01:23:12;1.40;;;0.47;;
45836;SDS011;31548;51.420;-0.040;2022-08-19T01:25:51;1.65;;;0.40;;
45836;SDS011;31548;51.420;-0.040;2022-08-19T01:28:21;1.58;;;0.40;;
45836;SDS011;31548;51.420;-0.040;2022-08-19T01:31:07;1.02;;;0.40;;
45836;SDS011;31548;51.420;-0.040;2022-08-19T01:33:54;4.07;;;0.52;;
45836;SDS011;31548;51.420;-0.040;2022-08-19T01:36:28;0.73;;;0.40;;
45836;SDS011;31548;51.420;-0.040;2022-08-19T01:38:59;3.03;;;0.85;;
45836;SDS011;31548;51.420;-0.040;2022-08-19T01:41:28;1.42;;;0.50;;
45836;SDS011;31548;51.420;-0.040;2022-08-19T01:43:56;1.42;;;0.47;;
45836;SDS011;31548;51.420;-0.040;2022-08-19T01:46:43;2.05;;;0.52;;
45836;SDS011;31548;51.420;-0.040;2022-08-19T01:49:11;1.35;;;0.60;;
45836;SDS011;31548;51.420;-0.040;2022-08-19T01:51:39;0.88;;;0.60;;
45836;SDS011;31548;51.420;-0.040;2022-08-19T01:54:11;1.33;;;0.40;;
45836;SDS011;31548;51.420;-0.040;2022-08-19T01:56:54;0.75;;;0.45;;
45836;SDS011;31548;51.420;-0.040;2022-08-19T01:59:26;1.63;;;0.43;;
45836;SDS011;31548;51.420;-0.040;2022-08-19T02:01:55;1.25;;;0.50;;
45836;SDS011;31548;51.420;-0.040;2022-08-19T02:04:23;0.55;;;0.40;;
45836;SDS011;31548;51.420;-0.040;2022-08-19T02:06:52;2.58;;;0.55;;
45836;SDS011;31548;51.420;-0.040;2022-08-19T02:09:20;3.30;;;0.57;;
45836;SDS011;31548;51.420;-0.040;2022-08-19T02:11:48;1.10;;;0.50;;
45836;SDS011;31548;51.420;-0.040;2022-08-19T02:14:16;1.52;;;0.50;;
45836;SDS011;31548;51.420;-0.040;2022-08-19T02:16:44;1.90;;;0.50;;
45836;SDS011;31548;51.420;-0.040;2022-08-19T02:19:12;1.35;;;0.55;;
45836;SDS011;31548;51.420;-0.040;2022-08-19T02:21:40;2.38;;;0.80;;
45836;SDS011;31548;51.420;-0.040;2022-08-19T02:24:07;1.33;;;0.70;;
45836;SDS011;31548;51.420;-0.040;2022-08-19T02:26:35;1.98;;;0.63;;
45836;SDS011;31548;51.420;-0.040;2022-08-19T02:29:03;2.15;;;0.70;;
45836;SDS011;31548;51.420;-0.040;2022-08-19T02:31:31;1.58;;;0.50;;
45836;SDS011;31548;51.420;-0.040;2022-08-19T02:34:00;5.30;;;0.80;;
45836;SDS011;31548;51.420;-0.040;2022-08-19T02:36:29;1.38;;;0.65;;
45836;SDS011;31548;51.420;-0.040;2022-08-19T02:38:57;1.40;;;0.93;;
45836;SDS011;31548;51.420;-0.040;2022-08-19T02:41:26;1.73;;;0.60;;
45836;SDS011;31548;51.420;-0.040;2022-08-19T02:43:58;4.25;;;0.75;;
45836;SDS011;31548;51.420;-0.040;2022-08-19T02:46:51;2.45;;;0.60;;
45836;SDS011;31548;51.420;-0.040;2022-08-19T02:49:18;3.28;;;0.70;;
45836;SDS011;31548;51.420;-0.040;2022-08-19T02:51:46;2.75;;;1.08;;
45836;SDS011;31548;51.420;-0.040;2022-08-19T02:54:14;4.43;;;0.90;;
45836;SDS011;31548;51.420;-0.040;2022-08-19T02:56:43;3.00;;;1.08;;
45836;SDS011;31548;51.420;-0.040;2022-08-19T02:59:11;4.05;;;1.05;;
45836;SDS011;31548;51.420;-0.040;2022-08-19T03:01:39;3.35;;;1.55;;
45836;SDS011;31548;51.420;-0.040;2022-08-19T03:04:10;2.88;;;0.80;;
45836;SDS011;31548;51.420;-0.040;2022-08-19T03:06:43;2.22;;;0.60;;
45836;SDS011;31548;51.420;-0.040;2022-08-19T03:09:13;2.03;;;0.70;;
45836;SDS011;31548;51.420;-0.040;2022-08-19T03:11:41;4.20;;;0.80;;
45836;SDS011;31548;51.420;-0.040;2022-08-19T03:14:09;2.85;;;0.70;;
45836;SDS011;31548;51.420;-0.040;2022-08-19T03:16:43;2.47;;;0.80;;
45836;SDS011;31548;51.420;-0.040;2022-08-19T03:19:16;1.77;;;0.65;;
45836;SDS011;31548;51.420;-0.040;2022-08-19T03:21:45;1.92;;;0.60;;
45836;SDS011;31548;51.420;-0.040;2022-08-19T03:24:14;1.13;;;0.60;;
45836;SDS011;31548;51.420;-0.040;2022-08-19T03:26:45;1.83;;;0.63;;
45836;SDS011;31548;51.420;-0.040;2022-08-19T03:29:15;1.40;;;0.60;;
45836;SDS011;31548;51.420;-0.040;2022-08-19T03:31:57;1.50;;;0.60;;
45836;SDS011;31548;51.420;-0.040;2022-08-19T03:34:30;3.87;;;0.93;;
45836;SDS011;31548;51.420;-0.040;2022-08-19T03:37:03;2.42;;;0.70;;
45836;SDS011;31548;51.420;-0.040;2022-08-19T03:39:33;7.20;;;1.20;;
45836;SDS011;31548;51.420;-0.040;2022-08-19T03:42:04;1.88;;;0.77;;
45836;SDS011;31548;51.420;-0.040;2022-08-19T03:44:52;1.00;;;0.50;;
45836;SDS011;31548;51.420;-0.040;2022-08-19T03:47:20;3.55;;;0.52;;
45836;SDS011;31548;51.420;-0.040;2022-08-19T03:49:47;3.58;;;0.65;;
45836;SDS011;31548;51.420;-0.040;2022-08-19T03:52:15;3.67;;;0.45;;
45836;SDS011;31548;51.420;-0.040;2022-08-19T03:54:43;2.88;;;0.40;;
45836;SDS011;31548;51.420;-0.040;2022-08-19T03:57:11;1.75;;;0.50;;
45836;SDS011;31548;51.420;-0.040;2022-08-19T03:59:39;1.27;;;0.50;;
45836;SDS011;31548;51.420;-0.040;2022-08-19T04:02:11;1.65;;;0.40;;
45836;SDS011;31548;51.420;-0.040;2022-08-19T04:04:41;1.52;;;0.47;;
45836;SDS011;31548;51.420;-0.040;2022-08-19T04:07:11;1.10;;;0.43;;
45836;SDS011;31548;51.420;-0.040;2022-08-19T04:09:42;2.53;;;0.70;;
45836;SDS011;31548;51.420;-0.040;2022-08-19T04:12:10;0.80;;;0.50;;
45836;SDS011;31548;51.420;-0.040;2022-08-19T04:14:38;0.63;;;0.40;;
45836;SDS011;31548;51.420;-0.040;2022-08-19T04:17:06;1.98;;;0.50;;
45836;SDS011;31548;51.420;-0.040;2022-08-19T04:19:34;0.65;;;0.45;;
45836;SDS011;31548;51.420;-0.040;2022-08-19T04:22:03;0.70;;;0.47;;
45836;SDS011;31548;51.420;-0.040;2022-08-19T04:24:31;0.45;;;0.30;;
45836;SDS011;31548;51.420;-0.040;2022-08-19T04:27:00;2.00;;;0.52;;
45836;SDS011;31548;51.420;-0.040;2022-08-19T04:29:29;1.27;;;0.45;;
45836;SDS011;31548;51.420;-0.040;2022-08-19T04:31:57;1.55;;;0.65;;
45836;SDS011;31548;51.420;-0.040;2022-08-19T04:34:35;3.10;;;0.60;;
45836;SDS011;31548;51.420;-0.040;2022-08-19T04:37:24;1.63;;;0.50;;
45836;SDS011;31548;51.420;-0.040;2022-08-19T04:40:01;1.73;;;0.63;;
45836;SDS011;31548;51.420;-0.040;2022-08-19T04:42:49;3.08;;;0.85;;
45836;SDS011;31548;51.420;-0.040;2022-08-19T04:45:18;0.95;;;0.40;;
45836;SDS011;31548;51.420;-0.040;2022-08-19T04:47:48;4.05;;;0.73;;
45836;SDS011;31548;51.420;-0.040;2022-08-19T04:50:39;1.20;;;0.40;;
45836;SDS011;31548;51.420;-0.040;2022-08-19T04:53:08;1.10;;;0.50;;
45836;SDS011;31548;51.420;-0.040;2022-08-19T04:55:40;0.65;;;0.45;;
45836;SDS011;31548;51.420;-0.040;2022-08-19T04:58:09;1.70;;;1.05;;
45836;SDS011;31548;51.420;-0.040;2022-08-19T05:00:38;2.40;;;0.60;;
45836;SDS011;31548;51.420;-0.040;2022-08-19T05:05:40;1.95;;;0.50;;
45836;SDS011;31548;51.420;-0.040;2022-08-19T05:08:15;0.75;;;0.50;;
45836;SDS011;31548;51.420;-0.040;2022-08-19T05:10:57;1.95;;;0.47;;
45836;SDS011;31548;51.420;-0.040;2022-08-19T05:13:26;2.25;;;0.50;;
45836;SDS011;31548;51.420;-0.040;2022-08-19T05:15:56;1.15;;;0.50;;
45836;SDS011;31548;51.420;-0.040;2022-08-19T05:18:25;3.92;;;0.40;;
45836;SDS011;31548;51.420;-0.040;2022-08-19T05:21:13;0.77;;;0.65;;
45836;SDS011;31548;51.420;-0.040;2022-08-19T05:24:01;1.13;;;0.30;;
45836;SDS011;31548;51.420;-0.040;2022-08-19T05:26:35;2.38;;;0.32;;
45836;SDS011;31548;51.420;-0.040;2022-08-19T05:29:04;0.52;;;0.40;;
45836;SDS011;31548;51.420;-0.040;2022-08-19T05:31:36;1.20;;;0.30;;
45836;SDS011;31548;51.420;-0.040;2022-08-19T05:34:07;1.80;;;0.32;;
45836;SDS011;31548;51.420;-0.040;2022-08-19T05:36:46;1.23;;;0.40;;
45836;SDS011;31548;51.420;-0.040;2022-08-19T05:39:16;1.25;;;0.30;;
45836;SDS011;31548;51.420;-0.040;2022-08-19T05:41:47;1.20;;;0.40;;
45836;SDS011;31548;51.420;-0.040;2022-08-19T05:44:18;0.68;;;0.30;;
45836;SDS011;31548;51.420;-0.040;2022-08-19T05:46:46;0.57;;;0.30;;
45836;SDS011;31548;51.420;-0.040;2022-08-19T05:49:15;0.60;;;0.28;;
45836;SDS011;31548;51.420;-0.040;2022-08-19T05:51:43;1.58;;;0.30;;
45836;SDS011;31548;51.420;-0.040;2022-08-19T05:54:11;1.45;;;0.30;;
45836;SDS011;31548;51.420;-0.040;2022-08-19T05:56:40;0.85;;;0.20;;
45836;SDS011;31548;51.420;-0.040;2022-08-19T05:59:09;0.25;;;0.20;;
45836;SDS011;31548;51.420;-0.040;2022-08-19T06:01:39;0.55;;;0.25;;
45836;SDS011;31548;51.420;-0.040;2022-08-19T06:04:08;0.70;;;0.20;;
45836;SDS011;31548;51.420;-0.040;2022-08-19T06:06:36;0.35;;;0.20;;
45836;SDS011;31548;51.420;-0.040;2022-08-19T06:09:04;0.20;;;0.10;;
45836;SDS011;31548;51.420;-0.040;2022-08-19T06:11:39;0.20;;;0.20;;
45836;SDS011;31548;51.420;-0.040;2022-08-19T06:14:21;0.10;;;0.10;;
45836;SDS011;31548;51.420;-0.040;2022-08-19T06:16:53;0.47;;;0.15;;
45836;SDS011;31548;51.420;-0.040;2022-08-19T06:19:22;2.05;;;0.10;;
45836;SDS011;31548;51.420;-0.040;2022-08-19T06:21:51;1.83;;;0.20;;
45836;SDS011;31548;51.420;-0.040;2022-08-19T06:24:20;0.20;;;0.20;;
45836;SDS011;31548;51.420;-0.040;2022-08-19T06:26:53;1.60;;;0.30;;
45836;SDS011;31548;51.420;-0.040;2022-08-19T06:31:57;0.85;;;0.20;;
45836;SDS011;31548;51.420;-0.040;2022-08-19T06:34:27;0.63;;;0.20;;
45836;SDS011;31548;51.420;-0.040;2022-08-19T06:36:57;0.55;;;0.10;;
45836;SDS011;31548;51.420;-0.040;2022-08-19T06:39:31;0.25;;;0.10;;
45836;SDS011;31548;51.420;-0.040;2022-08-19T06:42:06;0.38;;;0.10;;
45836;SDS011;31548;51.420;-0.040;2022-08-19T06:44:37;2.00;;;0.10;;
45836;SDS011;31548;51.420;-0.040;2022-08-19T06:47:12;0.20;;;0.10;;
45836;SDS011;31548;51.420;-0.040;2022-08-19T06:49:52;1.90;;;0.10;;
45836;SDS011;31548;51.420;-0.040;2022-08-19T06:52:27;0.38;;;0.00;;
45836;SDS011;31548;51.420;-0.040;2022-08-19T06:54:54;0.63;;;0.17;;
45836;SDS011;31548;51.420;-0.040;2022-08-19T06:57:25;0.65;;;0.20;;
45836;SDS011;31548;51.420;-0.040;2022-08-19T06:59:54;1.08;;;0.10;;
45836;SDS011;31548;51.420;-0.040;2022-08-19T07:02:23;10.48;;;0.17;;
45836;SDS011;31548;51.420;-0.040;2022-08-19T07:04:53;1.00;;;0.20;;
45836;SDS011;31548;51.420;-0.040;2022-08-19T07:07:23;0.77;;;0.10;;
45836;SDS011;31548;51.420;-0.040;2022-08-19T07:09:51;2.78;;;0.10;;
45836;SDS011;31548;51.420;-0.040;2022-08-19T07:12:28;0.17;;;0.10;;
45836;SDS011;31548;51.420;-0.040;2022-08-19T07:15:04;0.75;;;0.10;;
45836;SDS011;31548;51.420;-0.040;2022-08-19T07:17:33;1.17;;;0.20;;
45836;SDS011;31548;51.420;-0.040;2022-08-19T07:20:08;0.50;;;0.20;;
45836;SDS011;31548;51.420;-0.040;2022-08-19T07:22:37;0.77;;;0.20;;
45836;SDS011;31548;51.420;-0.040;2022-08-19T07:25:06;1.30;;;0.20;;
45836;SDS011;31548;51.420;-0.040;2022-08-19T07:27:35;1.58;;;0.20;;
45836;SDS011;31548;51.420;-0.040;2022-08-19T07:30:20;0.40;;;0.10;;
45836;SDS011;31548;51.420;-0.040;2022-08-19T07:32:51;1.35;;;0.10;;
45836;SDS011;31548;51.420;-0.040;2022-08-19T07:35:19;1.33;;;0.20;;
45836;SDS011;31548;51.420;-0.040;2022-08-19T07:37:47;1.90;;;0.10;;
45836;SDS011;31548;51.420;-0.040;2022-08-19T07:40:15;2.42;;;0.22;;
45836;SDS011;31548;51.420;-0.040;2022-08-19T07:42:43;5.20;;;0.20;;
45836;SDS011;31548;51.420;-0.040;2022-08-19T07:45:13;0.65;;;0.20;;
45836;SDS011;31548;51.420;-0.040;2022-08-19T07:47:47;1.60;;;0.10;;
45836;SDS011;31548;51.420;-0.040;2022-08-19T07:50:18;1.60;;;0.20;;
45836;SDS011;31548;51.420;-0.040;2022-08-19T07:52:47;0.80;;;0.28;;
45836;SDS011;31548;51.420;-0.040;2022-08-19T07:55:18;0.65;;;0.10;;
45836;SDS011;31548;51.420;-0.040;2022-08-19T07:58:07;0.63;;;0.10;;
45836;SDS011;31548;51.420;-0.040;2022-08-19T08:00:35;1.20;;;0.30;;
45836;SDS011;31548;51.420;-0.040;2022-08-19T08:03:04;1.75;;;0.10;;
45836;SDS011;31548;51.420;-0.040;2022-08-19T08:05:31;0.73;;;0.10;;
45836;SDS011;31548;51.420;-0.040;2022-08-19T08:08:17;1.45;;;0.20;;
45836;SDS011;31548;51.420;-0.040;2022-08-19T08:11:15;0.50;;;0.10;;
45836;SDS011;31548;51.420;-0.040;2022-08-19T08:13:46;0.57;;;0.15;;
45836;SDS011;31548;51.420;-0.040;2022-08-19T08:16:33;1.60;;;0.23;;
45836;SDS011;31548;51.420;-0.040;2022-08-19T08:19:12;1.23;;;0.10;;
45836;SDS011;31548;51.420;-0.040;2022-08-19T08:21:52;4.50;;;0.10;;
45836;SDS011;31548;51.420;-0.040;2022-08-19T08:24:21;2.05;;;0.10;;
45836;SDS011;31548;51.420;-0.040;2022-08-19T08:26:55;3.70;;;0.20;;
45836;SDS011;31548;51.420;-0.040;2022-08-19T08:29:24;1.42;;;0.20;;
45836;SDS011;31548;51.420;-0.040;2022-08-19T08:32:00;3.10;;;0.20;;
45836;SDS011;31548;51.420;-0.040;2022-08-19T08:34:39;1.88;;;0.30;;
45836;SDS011;31548;51.420;-0.040;2022-08-19T08:37:08;2.03;;;0.20;;
45836;SDS011;31548;51.420;-0.040;2022-08-19T08:39:36;1.88;;;0.20;;
45836;SDS011;31548;51.420;-0.040;2022-08-19T08:42:08;0.35;;;0.20;;
45836;SDS011;31548;51.420;-0.040;2022-08-19T08:44:59;2.05;;;0.20;;
45836;SDS011;31548;51.420;-0.040;2022-08-19T08:47:31;0.60;;;0.20;;
45836;SDS011;31548;51.420;-0.040;2022-08-19T08:50:09;1.23;;;0.30;;
45836;SDS011;31548;51.420;-0.040;2022-08-19T08:52:47;1.52;;;0.20;;
45836;SDS011;31548;51.420;-0.040;2022-08-19T08:55:27;1.48;;;0.20;;
45836;SDS011;31548;51.420;-0.040;2022-08-19T08:58:13;3.83;;;0.20;;
45836;SDS011;31548;51.420;-0.040;2022-08-19T09:00:47;6.35;;;0.20;;
45836;SDS011;31548;51.420;-0.040;2022-08-19T09:03:18;1.80;;;0.65;;
45836;SDS011;31548;51.420;-0.040;2022-08-19T09:06:02;0.95;;;0.10;;
45836;SDS011;31548;51.420;-0.040;2022-08-19T09:14:57;2.22;;;0.20;;
45836;SDS011;31548;51.420;-0.040;2022-08-19T09:17:30;0.80;;;0.20;;
45836;SDS011;31548;51.420;-0.040;2022-08-19T09:20:04;3.58;;;0.30;;
45836;SDS011;31548;51.420;-0.040;2022-08-19T09:22:52;2.08;;;0.22;;
45836;SDS011;31548;51.420;-0.040;2022-08-19T09:25:21;1.83;;;0.30;;
45836;SDS011;31548;51.420;-0.040;2022-08-19T09:27:53;1.30;;;0.22;;
45836;SDS011;31548;51.420;-0.040;2022-08-19T09:30:32;4.38;;;0.20;;
45836;SDS011;31548;51.420;-0.040;2022-08-19T09:33:01;1.05;;;0.20;;
45836;SDS011;31548;51.420;-0.040;2022-08-19T09:35:30;2.50;;;0.68;;
45836;SDS011;31548;51.420;-0.040;2022-08-19T09:38:21;3.60;;;0.20;;
45836;SDS011;31548;51.420;-0.040;2022-08-19T09:40:49;2.83;;;0.20;;
45836;SDS011;31548;51.420;-0.040;2022-08-19T09:43:17;1.10;;;0.20;;
45836;SDS011;31548;51.420;-0.040;2022-08-19T09:45:59;1.90;;;0.20;;
45836;SDS011;31548;51.420;-0.040;2022-08-19T09:48:28;2.22;;;0.17;;
45836;SDS011;31548;51.420;-0.040;2022-08-19T09:51:03;2.85;;;0.30;;
45836;SDS011;31548;51.420;-0.040;2022-08-19T09:53:32;1.52;;;0.17;;
45836;SDS011;31548;51.420;-0.040;2022-08-19T09:56:05;2.05;;;0.20;;
45836;SDS011;31548;51.420;-0.040;2022-08-19T09:58:35;0.50;;;0.17;;
45836;SDS011;31548;51.420;-0.040;2022-08-19T10:01:04;3.00;;;0.30;;
45836;SDS011;31548;51.420;-0.040;2022-08-19T10:03:33;1.65;;;0.30;;
45836;SDS011;31548;51.420;-0.040;2022-08-19T10:06:04;3.35;;;0.30;;
45836;SDS011;31548;51.420;-0.040;2022-08-19T10:08:40;5.10;;;0.25;;
45836;SDS011;31548;51.420;-0.040;2022-08-19T10:11:16;2.08;;;0.22;;
45836;SDS011;31548;51.420;-0.040;2022-08-19T10:13:54;0.73;;;0.10;;
45836;SDS011;31548;51.420;-0.040;2022-08-19T10:16:22;2.25;;;0.20;;
45836;SDS011;31548;51.420;-0.040;2022-08-19T10:18:52;0.70;;;0.10;;
45836;SDS011;31548;51.420;-0.040;2022-08-19T10:21:26;4.40;;;0.80;;
45836;SDS011;31548;51.420;-0.040;2022-08-19T10:23:59;0.50;;;0.20;;
45836;SDS011;31548;51.420;-0.040;2022-08-19T10:26:32;1.33;;;0.20;;
45836;SDS011;31548;51.420;-0.040;2022-08-19T10:29:04;2.33;;;0.30;;
45836;SDS011;31548;51.420;-0.040;2022-08-19T10:31:35;2.90;;;0.40;;
45836;SDS011;31548;51.420;-0.040;2022-08-19T10:34:23;1.65;;;0.30;;
45836;SDS011;31548;51.420;-0.040;2022-08-19T10:36:54;1.98;;;0.38;;
45836;SDS011;31548;51.420;-0.040;2022-08-19T10:39:30;1.65;;;0.30;;
45836;SDS011;31548;51.420;-0.040;2022-08-19T10:42:09;4.68;;;0.30;;
45836;SDS011;31548;51.420;-0.040;2022-08-19T10:44:40;3.70;;;0.30;;
45836;SDS011;31548;51.420;-0.040;2022-08-19T10:47:09;3.38;;;0.40;;
45836;SDS011;31548;51.420;-0.040;2022-08-19T10:49:52;2.35;;;0.30;;
45836;SDS011;31548;51.420;-0.040;2022-08-19T10:52:42;2.03;;;0.40;;
45836;SDS011;31548;51.420;-0.040;2022-08-19T10:55:20;3.88;;;0.30;;
45836;SDS011;31548;51.420;-0.040;2022-08-19T10:58:15;3.67;;;0.40;;
45836;SDS011;31548;51.420;-0.040;2022-08-19T11:03:21;2.20;;;0.73;;
45836;SDS011;31548;51.420;-0.040;2022-08-19T11:06:00;4.20;;;0.75;;
45836;SDS011;31548;51.420;-0.040;2022-08-19T11:08:28;3.33;;;0.40;;
45836;SDS011;31548;51.420;-0.040;2022-08-19T11:10:59;5.55;;;0.50;;
45836;SDS011;31548;51.420;-0.040;2022-08-19T11:13:30;3.75;;;0.30;;
45836;SDS011;31548;51.420;-0.040;2022-08-19T11:16:01;3.08;;;0.80;;
45836;SDS011;31548;51.420;-0.040;2022-08-19T11:18:37;8.57;;;0.60;;
45836;SDS011;31548;51.420;-0.040;2022-08-19T11:21:09;3.03;;;0.32;;
45836;SDS011;31548;51.420;-0.040;2022-08-19T11:23:40;4.60;;;0.40;;
45836;SDS011;31548;51.420;-0.040;2022-08-19T11:26:08;1.35;;;0.40;;
45836;SDS011;31548;51.420;-0.040;2022-08-19T11:28:36;2.53;;;0.50;;
45836;SDS011;31548;51.420;-0.040;2022-08-19T11:31:04;3.00;;;0.50;;
45836;SDS011;31548;51.420;-0.040;2022-08-19T11:33:36;4.68;;;0.55;;
45836;SDS011;31548;51.420;-0.040;2022-08-19T11:36:04;2.10;;;0.30;;
45836;SDS011;31548;51.420;-0.040;2022-08-19T11:38:32;2.03;;;0.38;;
45836;SDS011;31548;51.420;-0.040;2022-08-19T11:41:04;8.68;;;0.65;;
45836;SDS011;31548;51.420;-0.040;2022-08-19T11:43:34;4.50;;;0.65;;
45836;SDS011;31548;51.420;-0.040;2022-08-19T11:46:04;3.97;;;0.40;;
45836;SDS011;31548;51.420;-0.040;2022-08-19T11:48:34;9.45;;;1.20;;
45836;SDS011;31548;51.420;-0.040;2022-08-19T11:51:07;2.67;;;0.57;;
45836;SDS011;31548;51.420;-0.040;2022-08-19T11:53:37;6.13;;;0.60;;
45836;SDS011;31548;51.420;-0.040;2022-08-19T11:56:06;4.85;;;0.70;;
45836;SDS011;31548;51.420;-0.040;2022-08-19T11:58:35;5.88;;;0.70;;
45836;SDS011;31548;51.420;-0.040;2022-08-19T12:01:07;8.38;;;0.55;;
45836;SDS011;31548;51.420;-0.040;2022-08-19T12:03:36;4.15;;;0.60;;
45836;SDS011;31548;51.420;-0.040;2022-08-19T12:06:08;4.03;;;0.80;;
45836;SDS011;31548;51.420;-0.040;2022-08-19T12:08:40;3.30;;;0.55;;
45836;SDS011;31548;51.420;-0.040;2022-08-19T12:11:10;3.63;;;0.63;;
45836;SDS011;31548;51.420;-0.040;2022-08-19T12:13:40;4.18;;;0.50;;
45836;SDS011;31548;51.420;-0.040;2022-08-19T12:16:12;2.60;;;0.40;;
45836;SDS011;31548;51.420;-0.040;2022-08-19T12:18:50;4.03;;;0.70;;
45836;SDS011;31548;51.420;-0.040;2022-08-19T12:21:19;2.80;;;0.60;;
45836;SDS011;31548;51.420;-0.040;2022-08-19T12:23:49;3.40;;;0.60;;
45836;SDS011;31548;51.420;-0.040;2022-08-19T12:26:21;5.85;;;0.50;;
45836;SDS011;31548;51.420;-0.040;2022-08-19T12:28:50;6.07;;;0.80;;
45836;SDS011;31548;51.420;-0.040;2022-08-19T12:31:17;7.70;;;0.70;;
45836;SDS011;31548;51.420;-0.040;2022-08-19T12:33:46;4.43;;;0.55;;
45836;SDS011;31548;51.420;-0.040;2022-08-19T12:36:14;6.13;;;0.65;;
45836;SDS011;31548;51.420;-0.040;2022-08-19T12:38:44;2.50;;;0.55;;
45836;SDS011;31548;51.420;-0.040;2022-08-19T12:41:14;6.47;;;0.60;;
45836;SDS011;31548;51.420;-0.040;2022-08-19T12:43:45;3.35;;;0.47;;
45836;SDS011;31548;51.420;-0.040;2022-08-19T12:46:12;7.75;;;0.70;;
45836;SDS011;31548;51.420;-0.040;2022-08-19T12:48:44;7.63;;;0.60;;
45836;SDS011;31548;51.420;-0.040;2022-08-19T12:51:13;8.85;;;0.88;;
45836;SDS011;31548;51.420;-0.040;2022-08-19T12:53:42;6.70;;;0.57;;
45836;SDS011;31548;51.420;-0.040;2022-08-19T12:56:11;4.55;;;0.60;;
45836;SDS011;31548;51.420;-0.040;2022-08-19T12:58:41;5.57;;;0.73;;
45836;SDS011;31548;51.420;-0.040;2022-08-19T13:01:16;4.18;;;0.70;;
45836;SDS011;31548;51.420;-0.040;2022-08-19T13:03:48;10.95;;;0.75;;
45836;SDS011;31548;51.420;-0.040;2022-08-19T13:06:18;4.55;;;0.70;;
45836;SDS011;31548;51.420;-0.040;2022-08-19T13:08:46;7.05;;;0.80;;
45836;SDS011;31548;51.420;-0.040;2022-08-19T13:11:15;7.20;;;0.60;;
45836;SDS011;31548;51.420;-0.040;2022-08-19T13:13:45;5.10;;;0.82;;
45836;SDS011;31548;51.420;-0.040;2022-08-19T13:16:14;10.40;;;0.60;;
45836;SDS011;31548;51.420;-0.040;2022-08-19T13:18:43;8.95;;;0.75;;
45836;SDS011;31548;51.420;-0.040;2022-08-19T13:21:19;5.93;;;0.60;;
45836;SDS011;31548;51.420;-0.040;2022-08-19T13:23:50;6.10;;;0.50;;
45836;SDS011;31548;51.420;-0.040;2022-08-19T13:26:18;5.22;;;0.60;;
45836;SDS011;31548;51.420;-0.040;2022-08-19T13:28:46;4.35;;;0.77;;
45836;SDS011;31548;51.420;-0.040;2022-08-19T13:31:33;6.72;;;1.00;;
45836;SDS011;31548;51.420;-0.040;2022-08-19T13:34:25;4.25;;;0.63;;
45836;SDS011;31548;51.420;-0.040;2022-08-19T13:37:03;7.53;;;1.15;;
45836;SDS011;31548;51.420;-0.040;2022-08-19T13:39:32;5.40;;;0.50;;
45836;SDS011;31548;51.420;-0.040;2022-08-19T13:42:01;6.10;;;0.50;;
45836;SDS011;31548;51.420;-0.040;2022-08-19T13:44:31;5.10;;;0.50;;
45836;SDS011;31548;51.420;-0.040;2022-08-19T13:47:03;4.82;;;0.60;;
45836;SDS011;31548;51.420;-0.040;2022-08-19T13:49:32;6.22;;;0.73;;
45836;SDS011;31548;51.420;-0.040;2022-08-19T13:52:03;6.18;;;0.60;;
45836;SDS011;31548;51.420;-0.040;2022-08-19T13:54:32;5.03;;;0.60;;
45836;SDS011;31548;51.420;-0.040;2022-08-19T13:56:59;3.92;;;0.65;;
45836;SDS011;31548;51.420;-0.040;2022-08-19T13:59:27;4.78;;;0.55;;
45836;SDS011;31548;51.420;-0.040;2022-08-19T14:01:57;6.97;;;0.63;;
45836;SDS011;31548;51.420;-0.040;2022-08-19T14:04:26;4.00;;;0.50;;
45836;SDS011;31548;51.420;-0.040;2022-08-19T14:06:53;4.63;;;0.77;;
45836;SDS011;31548;51.420;-0.040;2022-08-19T14:09:21;9.95;;;0.40;;
45836;SDS011;31548;51.420;-0.040;2022-08-19T14:11:49;5.97;;;0.70;;
45836;SDS011;31548;51.420;-0.040;2022-08-19T14:14:17;6.75;;;0.68;;
45836;SDS011;31548;51.420;-0.040;2022-08-19T14:16:44;4.55;;;0.50;;
45836;SDS011;31548;51.420;-0.040;2022-08-19T14:19:12;4.95;;;0.70;;
45836;SDS011;31548;51.420;-0.040;2022-08-19T14:21:39;6.15;;;0.40;;
45836;SDS011;31548;51.420;-0.040;2022-08-19T14:24:07;7.25;;;1.08;;
45836;SDS011;31548;51.420;-0.040;2022-08-19T14:26:35;2.88;;;0.40;;
45836;SDS011;31548;51.420;-0.040;2022-08-19T14:29:03;5.10;;;0.63;;
45836;SDS011;31548;51.420;-0.040;2022-08-19T14:31:31;9.02;;;0.60;;
45836;SDS011;31548;51.420;-0.040;2022-08-19T14:33:58;9.68;;;0.50;;
45836;SDS011;31548;51.420;-0.040;2022-08-19T14:36:26;5.10;;;0.80;;
45836;SDS011;31548;51.420;-0.040;2022-08-19T14:38:53;10.07;;;0.80;;
45836;SDS011;31548;51.420;-0.040;2022-08-19T14:41:22;4.85;;;0.70;;
45836;SDS011;31548;51.420;-0.040;2022-08-19T14:43:50;6.10;;;0.60;;
45836;SDS011;31548;51.420;-0.040;2022-08-19T14:46:20;5.90;;;0.98;;
45836;SDS011;31548;51.420;-0.040;2022-08-19T14:48:50;6.60;;;0.50;;
45836;SDS011;31548;51.420;-0.040;2022-08-19T14:51:19;4.95;;;0.70;;
45836;SDS011;31548;51.420;-0.040;2022-08-19T14:53:50;3.83;;;0.60;;
45836;SDS011;31548;51.420;-0.040;2022-08-19T14:56:20;7.28;;;0.80;;
45836;SDS011;31548;51.420;-0.040;2022-08-19T14:58:50;5.25;;;0.50;;
45836;SDS011;31548;51.420;-0.040;2022-08-19T15:01:21;5.80;;;0.63;;
45836;SDS011;31548;51.420;-0.040;2022-08-19T15:03:49;4.60;;;0.60;;
45836;SDS011;31548;51.420;-0.040;2022-08-19T15:06:19;2.97;;;0.40;;
45836;SDS011;31548;51.420;-0.040;2022-08-19T15:08:48;6.53;;;0.70;;
45836;SDS011;31548;51.420;-0.040;2022-08-19T15:11:19;4.85;;;0.50;;
45836;SDS011;31548;51.420;-0.040;2022-08-19T15:13:49;4.25;;;0.60;;